Senkursk, Russia
Current Conditions -  °F | °C
As of 2:00 AM on Friday 19 Dec 2014 (Local Time) from ULAA Reporting Station
Snow Showers Snow Showers  
Wind Chill: 23°   Ceiling: 600
Heat Index: 32°   Visibility: 2.2mi
Dew Point: 32°   Wind: 11mph
Humidity: 100%   Direction: 290°WNW
Pressure: 29.29"   Gusts: 18mph
Location:  62.1°N, 42.9°E
Report Text: ULAA 182300Z 29005G08MPS 190V320 3600 -SHSN OVC006CB M00/M00 Q0992 TEMPO 0500 +SHSN BKN002CB RMK QBB180 QFE743/0990 SC038
Loading
Personal Weather Stations






























Interactive Weather Map New forecast layout! Learn more

10-Day Weather Forecast

Advertisements
Track Severe Weather on mobile